Struthers, Ohio
Current Conditions -  °F | °C
As of 9:51 AM on Monday 22 Dec 2014 (Local Time) from KYNG Reporting Station
Overcast Overcast  
Wind Chill: 19°   Ceiling: 4300
Heat Index: 29°   Visibility: 7mi
Dew Point: 24°   Wind: 12mph
Humidity: 82%   Direction: 120°ESE
Pressure: 30.1"   Gusts: NA
Location:  41.05°N, 80.59°W
Report Text: KYNG 221451Z 12010KT 7SM BKN043 OVC250 M02/M04 A3010 RMK AO2 SLP208 T10171044 58002
Loading
Personal Weather Stations






























Interactive Weather Map New forecast layout! Learn more

10-Day Weather Forecast

Advertisements
Track Severe Weather on mobile